Terminal Aerodrome Forecast
Issued by NWS Indianapolis, IN

Home | Current Version | Previous Version | Text Only | Print | Product List | Glossary On
Versions: 1 2 3 4 5 6 7 8 9 10 11 12 13 14 15 16 17 18 19 20 21 22 23 24
520
FTUS43 KIND 262031 AAA
TAFIND
TAF AMD
KIND 262031Z 2621/2724 28012G21KT P6SM SCT060 BKN110
     FM270000 28007KT P6SM VCSH SCT060 BKN130
     FM270300 28004KT P6SM SCT200=

USA.gov is the U.S. government's official web portal to all federal, state and local government web resources and services.